Represa, California
Current Conditions -  °F | °C
As of 10:45 PM on Tuesday 25 Nov 2014 (Local Time) from KMHR Reporting Station
Clear Clear  
Wind Chill: 43°   Ceiling: Unl
Heat Index: 43°   Visibility: 10mi
Dew Point: 43°   Wind: 3mph
Humidity: 100%   Direction: 90°E
Pressure: 30.38"   Gusts: NA
Location:  38.67°N, 121.15°W
Report Text: KMHR 260645Z 09003KT 10SM SKC 06/06 A3038
Loading
Personal Weather Stations






























Interactive Weather Map New forecast layout! Learn more

10-Day Weather Forecast

Advertisements
Track Severe Weather on mobile